sensor_id;sensor_type;location;lat;lon;timestamp;P1;durP1;ratioP1;P2;durP2;ratioP2
46597;SDS011;32318;48.858;8.252;2023-04-25T00:05:38;7.70;;;2.72;;
46597;SDS011;32318;48.858;8.252;2023-04-25T00:13:38;5.93;;;2.53;;
46597;SDS011;32318;48.858;8.252;2023-04-25T00:21:41;5.30;;;2.70;;
46597;SDS011;32318;48.858;8.252;2023-04-25T00:29:41;8.27;;;2.83;;
46597;SDS011;32318;48.858;8.252;2023-04-25T00:37:42;7.15;;;2.70;;
46597;SDS011;32318;48.858;8.252;2023-04-25T00:45:42;5.25;;;2.75;;
46597;SDS011;32318;48.858;8.252;2023-04-25T00:53:43;6.68;;;2.67;;
46597;SDS011;32318;48.858;8.252;2023-04-25T01:01:43;10.30;;;2.78;;
46597;SDS011;32318;48.858;8.252;2023-04-25T01:09:45;4.70;;;2.42;;
46597;SDS011;32318;48.858;8.252;2023-04-25T01:17:46;11.30;;;3.03;;
46597;SDS011;32318;48.858;8.252;2023-04-25T01:25:48;6.05;;;2.55;;
46597;SDS011;32318;48.858;8.252;2023-04-25T01:33:49;6.97;;;2.85;;
46597;SDS011;32318;48.858;8.252;2023-04-25T01:41:49;5.25;;;3.13;;
46597;SDS011;32318;48.858;8.252;2023-04-25T01:49:49;6.45;;;3.10;;
46597;SDS011;32318;48.858;8.252;2023-04-25T01:57:50;6.68;;;3.67;;
46597;SDS011;32318;48.858;8.252;2023-04-25T02:05:50;5.78;;;3.47;;
46597;SDS011;32318;48.858;8.252;2023-04-25T02:13:50;5.63;;;3.10;;
46597;SDS011;32318;48.858;8.252;2023-04-25T02:21:51;5.30;;;3.03;;
46597;SDS011;32318;48.858;8.252;2023-04-25T02:29:51;5.18;;;3.08;;
46597;SDS011;32318;48.858;8.252;2023-04-25T02:37:51;6.28;;;2.92;;
46597;SDS011;32318;48.858;8.252;2023-04-25T02:45:52;6.28;;;3.58;;
46597;SDS011;32318;48.858;8.252;2023-04-25T02:53:52;5.93;;;3.28;;
46597;SDS011;32318;48.858;8.252;2023-04-25T03:01:52;9.02;;;3.15;;
46597;SDS011;32318;48.858;8.252;2023-04-25T03:09:52;6.40;;;3.60;;
46597;SDS011;32318;48.858;8.252;2023-04-25T03:17:53;7.63;;;3.38;;
46597;SDS011;32318;48.858;8.252;2023-04-25T03:25:53;8.50;;;3.38;;
46597;SDS011;32318;48.858;8.252;2023-04-25T03:33:53;7.75;;;3.03;;
46597;SDS011;32318;48.858;8.252;2023-04-25T03:41:53;8.73;;;3.38;;
46597;SDS011;32318;48.858;8.252;2023-04-25T03:49:54;6.03;;;3.58;;
46597;SDS011;32318;48.858;8.252;2023-04-25T03:57:54;6.53;;;3.15;;
46597;SDS011;32318;48.858;8.252;2023-04-25T04:05:55;8.95;;;3.90;;
46597;SDS011;32318;48.858;8.252;2023-04-25T04:13:55;6.78;;;3.33;;
46597;SDS011;32318;48.858;8.252;2023-04-25T04:21:55;6.90;;;3.20;;
46597;SDS011;32318;48.858;8.252;2023-04-25T04:29:55;8.52;;;3.42;;
46597;SDS011;32318;48.858;8.252;2023-04-25T04:37:56;5.93;;;3.40;;
46597;SDS011;32318;48.858;8.252;2023-04-25T04:45:56;6.75;;;3.92;;
46597;SDS011;32318;48.858;8.252;2023-04-25T04:53:56;9.07;;;3.90;;
46597;SDS011;32318;48.858;8.252;2023-04-25T05:01:58;6.97;;;3.65;;
46597;SDS011;32318;48.858;8.252;2023-04-25T05:09:58;10.35;;;4.80;;
46597;SDS011;32318;48.858;8.252;2023-04-25T05:17:58;12.75;;;3.33;;
46597;SDS011;32318;48.858;8.252;2023-04-25T05:26:14;6.80;;;4.20;;
46597;SDS011;32318;48.858;8.252;2023-04-25T05:34:16;11.27;;;5.70;;
46597;SDS011;32318;48.858;8.252;2023-04-25T05:42:17;6.88;;;3.40;;
46597;SDS011;32318;48.858;8.252;2023-04-25T05:50:17;9.15;;;3.92;;
46597;SDS011;32318;48.858;8.252;2023-04-25T05:58:17;9.85;;;4.20;;
46597;SDS011;32318;48.858;8.252;2023-04-25T06:06:18;6.65;;;3.65;;
46597;SDS011;32318;48.858;8.252;2023-04-25T06:14:18;7.63;;;4.00;;
46597;SDS011;32318;48.858;8.252;2023-04-25T06:22:18;6.47;;;3.25;;
46597;SDS011;32318;48.858;8.252;2023-04-25T06:30:19;6.90;;;3.65;;
46597;SDS011;32318;48.858;8.252;2023-04-25T06:38:22;10.13;;;3.75;;
46597;SDS011;32318;48.858;8.252;2023-04-25T06:46:22;7.50;;;3.60;;
46597;SDS011;32318;48.858;8.252;2023-04-25T06:54:22;6.75;;;3.53;;
46597;SDS011;32318;48.858;8.252;2023-04-25T07:02:24;7.15;;;3.60;;
46597;SDS011;32318;48.858;8.252;2023-04-25T07:10:25;9.88;;;4.25;;
46597;SDS011;32318;48.858;8.252;2023-04-25T07:18:25;7.73;;;4.37;;
46597;SDS011;32318;48.858;8.252;2023-04-25T07:26:25;9.05;;;4.68;;
46597;SDS011;32318;48.858;8.252;2023-04-25T07:34:26;13.40;;;6.47;;
46597;SDS011;32318;48.858;8.252;2023-04-25T07:42:26;12.00;;;5.13;;
46597;SDS011;32318;48.858;8.252;2023-04-25T07:50:26;12.88;;;5.80;;
46597;SDS011;32318;48.858;8.252;2023-04-25T07:58:26;8.57;;;5.28;;
46597;SDS011;32318;48.858;8.252;2023-04-25T08:06:27;7.53;;;4.63;;
46597;SDS011;32318;48.858;8.252;2023-04-25T08:14:27;10.05;;;4.68;;
46597;SDS011;32318;48.858;8.252;2023-04-25T08:22:29;14.48;;;5.20;;
46597;SDS011;32318;48.858;8.252;2023-04-25T08:30:30;8.70;;;4.90;;
46597;SDS011;32318;48.858;8.252;2023-04-25T08:38:30;7.47;;;4.22;;
46597;SDS011;32318;48.858;8.252;2023-04-25T08:46:31;7.57;;;4.17;;
46597;SDS011;32318;48.858;8.252;2023-04-25T08:54:32;5.57;;;3.25;;
46597;SDS011;32318;48.858;8.252;2023-04-25T09:02:32;5.43;;;3.22;;
46597;SDS011;32318;48.858;8.252;2023-04-25T09:10:33;5.78;;;3.42;;
46597;SDS011;32318;48.858;8.252;2023-04-25T09:18:34;7.40;;;3.90;;
46597;SDS011;32318;48.858;8.252;2023-04-25T09:26:35;7.88;;;4.10;;
46597;SDS011;32318;48.858;8.252;2023-04-25T09:34:38;9.23;;;5.05;;
46597;SDS011;32318;48.858;8.252;2023-04-25T09:42:42;9.45;;;5.45;;
46597;SDS011;32318;48.858;8.252;2023-04-25T09:50:43;7.43;;;4.32;;
46597;SDS011;32318;48.858;8.252;2023-04-25T09:58:43;9.63;;;3.45;;
46597;SDS011;32318;48.858;8.252;2023-04-25T10:06:43;6.75;;;3.20;;
46597;SDS011;32318;48.858;8.252;2023-04-25T10:14:46;13.98;;;4.75;;
46597;SDS011;32318;48.858;8.252;2023-04-25T10:22:47;10.05;;;4.30;;
46597;SDS011;32318;48.858;8.252;2023-04-25T10:30:57;5.25;;;2.83;;
46597;SDS011;32318;48.858;8.252;2023-04-25T10:39:03;4.88;;;2.17;;
46597;SDS011;32318;48.858;8.252;2023-04-25T10:47:07;3.45;;;2.20;;
46597;SDS011;32318;48.858;8.252;2023-04-25T10:55:09;11.93;;;2.50;;
46597;SDS011;32318;48.858;8.252;2023-04-25T11:03:10;3.92;;;2.05;;
46597;SDS011;32318;48.858;8.252;2023-04-25T11:11:10;3.58;;;1.90;;
46597;SDS011;32318;48.858;8.252;2023-04-25T11:19:12;4.22;;;1.92;;
46597;SDS011;32318;48.858;8.252;2023-04-25T11:27:30;6.90;;;3.70;;
46597;SDS011;32318;48.858;8.252;2023-04-25T11:35:40;5.93;;;2.47;;
46597;SDS011;32318;48.858;8.252;2023-04-25T11:43:40;5.18;;;2.72;;
46597;SDS011;32318;48.858;8.252;2023-04-25T11:51:44;5.60;;;3.03;;
46597;SDS011;32318;48.858;8.252;2023-04-25T11:59:51;5.00;;;2.67;;
46597;SDS011;32318;48.858;8.252;2023-04-25T12:07:51;5.28;;;2.85;;
46597;SDS011;32318;48.858;8.252;2023-04-25T12:15:54;8.75;;;3.40;;
46597;SDS011;32318;48.858;8.252;2023-04-25T12:23:55;5.80;;;3.15;;
46597;SDS011;32318;48.858;8.252;2023-04-25T12:31:56;8.07;;;4.13;;
46597;SDS011;32318;48.858;8.252;2023-04-25T12:39:56;5.70;;;3.00;;
46597;SDS011;32318;48.858;8.252;2023-04-25T12:47:56;8.98;;;3.03;;
46597;SDS011;32318;48.858;8.252;2023-04-25T12:55:57;6.63;;;3.42;;
46597;SDS011;32318;48.858;8.252;2023-04-25T13:03:57;7.03;;;3.45;;
46597;SDS011;32318;48.858;8.252;2023-04-25T13:11:57;5.63;;;3.58;;
46597;SDS011;32318;48.858;8.252;2023-04-25T13:19:58;9.57;;;4.78;;
46597;SDS011;32318;48.858;8.252;2023-04-25T13:27:59;11.88;;;5.15;;
46597;SDS011;32318;48.858;8.252;2023-04-25T13:36:00;11.43;;;5.22;;
46597;SDS011;32318;48.858;8.252;2023-04-25T13:44:00;6.70;;;3.33;;
46597;SDS011;32318;48.858;8.252;2023-04-25T13:52:01;5.25;;;3.03;;
46597;SDS011;32318;48.858;8.252;2023-04-25T14:00:02;7.40;;;2.83;;
46597;SDS011;32318;48.858;8.252;2023-04-25T14:08:09;3.92;;;2.58;;
46597;SDS011;32318;48.858;8.252;2023-04-25T14:16:09;5.50;;;2.95;;
46597;SDS011;32318;48.858;8.252;2023-04-25T14:24:10;3.80;;;1.65;;
46597;SDS011;32318;48.858;8.252;2023-04-25T14:32:13;2.50;;;1.60;;
46597;SDS011;32318;48.858;8.252;2023-04-25T14:40:13;3.22;;;1.50;;
46597;SDS011;32318;48.858;8.252;2023-04-25T14:48:16;2.75;;;1.58;;
46597;SDS011;32318;48.858;8.252;2023-04-25T14:56:19;4.50;;;2.03;;
46597;SDS011;32318;48.858;8.252;2023-04-25T15:04:19;6.57;;;2.00;;
46597;SDS011;32318;48.858;8.252;2023-04-25T15:12:20;6.47;;;2.17;;
46597;SDS011;32318;48.858;8.252;2023-04-25T15:20:20;5.20;;;2.60;;
46597;SDS011;32318;48.858;8.252;2023-04-25T15:28:21;9.85;;;2.83;;
46597;SDS011;32318;48.858;8.252;2023-04-25T15:36:21;12.18;;;3.63;;
46597;SDS011;32318;48.858;8.252;2023-04-25T15:44:22;8.60;;;3.35;;
46597;SDS011;32318;48.858;8.252;2023-04-25T15:52:22;7.57;;;2.63;;
46597;SDS011;32318;48.858;8.252;2023-04-25T16:00:22;6.90;;;2.40;;
46597;SDS011;32318;48.858;8.252;2023-04-25T16:08:23;7.55;;;2.30;;
46597;SDS011;32318;48.858;8.252;2023-04-25T16:16:24;2.88;;;1.63;;
46597;SDS011;32318;48.858;8.252;2023-04-25T16:24:25;6.03;;;2.38;;
46597;SDS011;32318;48.858;8.252;2023-04-25T16:32:25;6.20;;;2.90;;
46597;SDS011;32318;48.858;8.252;2023-04-25T16:40:25;5.82;;;2.08;;
46597;SDS011;32318;48.858;8.252;2023-04-25T16:48:26;3.05;;;1.63;;
46597;SDS011;32318;48.858;8.252;2023-04-25T16:56:26;3.75;;;2.50;;
46597;SDS011;32318;48.858;8.252;2023-04-25T17:04:26;7.03;;;2.50;;
46597;SDS011;32318;48.858;8.252;2023-04-25T17:12:27;4.50;;;2.58;;
46597;SDS011;32318;48.858;8.252;2023-04-25T17:20:27;4.35;;;2.60;;
46597;SDS011;32318;48.858;8.252;2023-04-25T17:28:28;5.10;;;2.30;;
46597;SDS011;32318;48.858;8.252;2023-04-25T17:36:28;3.38;;;2.13;;
46597;SDS011;32318;48.858;8.252;2023-04-25T17:44:29;5.32;;;2.80;;
46597;SDS011;32318;48.858;8.252;2023-04-25T17:52:29;5.70;;;2.83;;
46597;SDS011;32318;48.858;8.252;2023-04-25T18:00:30;9.15;;;2.80;;
46597;SDS011;32318;48.858;8.252;2023-04-25T18:08:32;7.65;;;3.22;;
46597;SDS011;32318;48.858;8.252;2023-04-25T18:16:32;7.10;;;3.53;;
46597;SDS011;32318;48.858;8.252;2023-04-25T18:24:34;7.03;;;3.67;;
46597;SDS011;32318;48.858;8.252;2023-04-25T18:32:34;51.63;;;17.55;;
46597;SDS011;32318;48.858;8.252;2023-04-25T18:40:34;19.42;;;8.90;;
46597;SDS011;32318;48.858;8.252;2023-04-25T18:48:35;20.33;;;8.30;;
46597;SDS011;32318;48.858;8.252;2023-04-25T18:56:36;20.15;;;6.80;;
46597;SDS011;32318;48.858;8.252;2023-04-25T19:04:36;11.52;;;6.30;;
46597;SDS011;32318;48.858;8.252;2023-04-25T19:12:36;9.82;;;5.15;;
46597;SDS011;32318;48.858;8.252;2023-04-25T19:20:36;14.93;;;6.28;;
46597;SDS011;32318;48.858;8.252;2023-04-25T19:28:37;8.05;;;3.72;;
46597;SDS011;32318;48.858;8.252;2023-04-25T19:36:38;7.78;;;4.28;;
46597;SDS011;32318;48.858;8.252;2023-04-25T19:44:39;13.30;;;5.60;;
46597;SDS011;32318;48.858;8.252;2023-04-25T19:52:40;14.83;;;5.73;;
46597;SDS011;32318;48.858;8.252;2023-04-25T20:00:40;13.90;;;5.63;;
46597;SDS011;32318;48.858;8.252;2023-04-25T20:08:40;12.07;;;5.97;;
46597;SDS011;32318;48.858;8.252;2023-04-25T20:16:42;13.10;;;5.55;;
46597;SDS011;32318;48.858;8.252;2023-04-25T20:24:42;11.23;;;4.30;;
46597;SDS011;32318;48.858;8.252;2023-04-25T20:32:42;9.10;;;4.82;;
46597;SDS011;32318;48.858;8.252;2023-04-25T20:40:43;9.32;;;5.60;;
46597;SDS011;32318;48.858;8.252;2023-04-25T20:48:43;11.05;;;6.30;;
46597;SDS011;32318;48.858;8.252;2023-04-25T20:56:43;12.52;;;6.18;;
46597;SDS011;32318;48.858;8.252;2023-04-25T21:04:44;13.30;;;6.68;;
46597;SDS011;32318;48.858;8.252;2023-04-25T21:12:45;14.98;;;7.65;;
46597;SDS011;32318;48.858;8.252;2023-04-25T21:20:48;13.63;;;7.10;;
46597;SDS011;32318;48.858;8.252;2023-04-25T21:28:48;20.17;;;8.60;;
46597;SDS011;32318;48.858;8.252;2023-04-25T21:36:49;18.70;;;8.63;;
46597;SDS011;32318;48.858;8.252;2023-04-25T21:44:49;13.50;;;8.00;;
46597;SDS011;32318;48.858;8.252;2023-04-25T21:52:49;15.63;;;8.63;;
46597;SDS011;32318;48.858;8.252;2023-04-25T22:00:50;16.05;;;8.73;;
46597;SDS011;32318;48.858;8.252;2023-04-25T22:08:50;19.27;;;9.40;;
46597;SDS011;32318;48.858;8.252;2023-04-25T22:16:50;15.85;;;9.30;;
46597;SDS011;32318;48.858;8.252;2023-04-25T22:24:53;19.38;;;11.05;;
46597;SDS011;32318;48.858;8.252;2023-04-25T22:32:53;21.67;;;9.63;;
46597;SDS011;32318;48.858;8.252;2023-04-25T22:40:54;15.27;;;7.95;;
46597;SDS011;32318;48.858;8.252;2023-04-25T22:48:54;14.95;;;7.07;;
46597;SDS011;32318;48.858;8.252;2023-04-25T22:56:54;15.20;;;6.45;;
46597;SDS011;32318;48.858;8.252;2023-04-25T23:04:55;13.60;;;6.47;;
46597;SDS011;32318;48.858;8.252;2023-04-25T23:12:55;12.68;;;5.80;;
46597;SDS011;32318;48.858;8.252;2023-04-25T23:20:59;10.00;;;5.40;;
46597;SDS011;32318;48.858;8.252;2023-04-25T23:29:00;11.05;;;5.43;;
46597;SDS011;32318;48.858;8.252;2023-04-25T23:37:01;12.32;;;5.93;;
46597;SDS011;32318;48.858;8.252;2023-04-25T23:45:03;13.73;;;5.10;;
46597;SDS011;32318;48.858;8.252;2023-04-25T23:53:04;11.45;;;5.45;;
